Time,TemperatureF,DewpointF,PressureIn,WindDirection,WindDirectionDegrees,WindSpeedMPH,WindSpeedGustMPH,Humidity,HourlyPrecipIn,Conditions,Clouds,dailyrainin,SoftwareType,DateUTC
2013-03-21 00:00:00,32.7,30.1,29.92,East,101,0.0,4.0,90,0.00,,---,1.21,VWS V14.00,2013-03-21 07:00:00,
2013-03-21 00:05:00,32.9,30.3,29.92,East,101,0.0,1.0,90,0.00,,---,0.00,VWS V14.00,2013-03-21 07:05:00,
2013-03-21 00:10:00,33.0,30.4,29.93,ESE,105,0.0,2.0,90,0.00,,---,0.00,VWS V14.00,2013-03-21 07:10:00,
2013-03-21 00:15:00,32.9,30.3,29.93,ESE,105,0.0,2.0,90,0.00,,---,0.00,VWS V14.00,2013-03-21 07:15:00,
2013-03-21 00:20:00,32.9,30.3,29.93,ESE,105,0.0,0.0,90,0.00,,---,0.00,VWS V14.00,2013-03-21 07:20:00,
2013-03-21 00:25:00,32.6,30.0,29.93,ESE,105,0.0,0.0,90,0.00,,---,0.00,VWS V14.00,2013-03-21 07:25:00,
2013-03-21 00:30:00,32.6,30.0,29.94,ESE,105,0.0,0.0,90,0.00,,---,0.00,VWS V14.00,2013-03-21 07:30:00,
2013-03-21 00:35:00,32.5,29.9,29.94,ESE,105,0.0,0.0,90,0.00,,---,0.00,VWS V14.00,2013-03-21 07:35:00,
2013-03-21 00:40:00,32.4,29.8,29.94,ESE,105,0.0,0.0,90,0.00,,---,0.00,VWS V14.00,2013-03-21 07:40:00,
2013-03-21 00:45:00,32.4,29.8,29.94,ESE,105,0.0,2.0,90,0.00,,---,0.00,VWS V14.00,2013-03-21 07:45:00,
2013-03-21 00:50:00,32.3,29.7,29.95,ESE,105,0.0,0.0,90,0.00,,---,0.00,VWS V14.00,2013-03-21 07:50:00,
2013-03-21 00:55:00,32.3,29.7,29.95,NNW,334,0.0,2.0,90,0.00,,---,0.00,VWS V14.00,2013-03-21 07:55:00,
2013-03-21 01:00:00,32.2,29.6,29.95,SW,236,2.0,4.0,90,0.00,,---,0.00,VWS V14.00,2013-03-21 08:00:00,
2013-03-21 01:05:00,32.4,29.8,29.95,ENE,68,0.0,8.0,90,0.00,,---,0.00,VWS V14.00,2013-03-21 08:05:00,
2013-03-21 01:10:00,32.6,29.7,29.96,NE,38,0.0,4.0,89,0.00,,---,0.00,VWS V14.00,2013-03-21 08:10:00,
2013-03-21 01:15:00,32.7,29.8,29.96,NNE,32,0.0,2.0,89,0.00,,---,0.00,VWS V14.00,2013-03-21 08:15:00,
2013-03-21 01:20:00,32.8,29.9,29.96,SSW,211,0.0,2.0,89,0.00,,---,0.00,VWS V14.00,2013-03-21 08:20:00,
2013-03-21 01:25:00,32.9,29.7,29.97,ESE,113,0.0,2.0,88,0.00,,---,0.00,VWS V14.00,2013-03-21 08:25:00,
2013-03-21 01:30:00,32.8,29.6,29.97,ESE,105,0.0,2.0,88,0.00,,---,0.00,VWS V14.00,2013-03-21 08:30:00,
2013-03-21 01:35:00,32.9,29.2,29.97,WSW,244,0.0,6.0,86,0.00,,---,0.00,VWS V14.00,2013-03-21 08:35:00,
2013-03-21 01:40:00,33.0,29.3,29.97,NNW,346,4.0,6.0,86,0.00,,---,0.00,VWS V14.00,2013-03-21 08:40:00,
2013-03-21 01:45:00,33.4,29.4,29.97,NNW,338,0.0,4.0,85,0.00,,---,0.00,VWS V14.00,2013-03-21 08:45:00,
2013-03-21 01:50:00,33.5,29.2,29.97,NNW,338,0.0,2.0,84,0.00,,---,0.00,VWS V14.00,2013-03-21 08:50:00,
2013-03-21 01:55:00,33.6,28.4,29.97,WNW,300,1.0,4.0,81,0.00,,---,0.00,VWS V14.00,2013-03-21 08:55:00,
2013-03-21 02:00:00,34.2,28.1,29.97,NNW,328,0.0,8.0,78,0.00,,---,0.00,VWS V14.00,2013-03-21 09:00:00,
2013-03-21 02:05:00,34.6,28.1,29.97,SW,234,0.0,4.0,77,0.00,,---,0.00,VWS V14.00,2013-03-21 09:05:00,
2013-03-21 02:10:00,34.7,28.2,29.98,WSW,255,0.0,5.0,77,0.00,,---,0.00,VWS V14.00,2013-03-21 09:10:00,
2013-03-21 02:15:00,34.8,28.6,29.98,West,270,1.0,3.0,78,0.00,,---,0.00,VWS V14.00,2013-03-21 09:15:00,
2013-03-21 02:20:00,34.8,28.6,29.98,SW,229,0.0,5.0,78,0.00,,---,0.00,VWS V14.00,2013-03-21 09:20:00,
2013-03-21 02:25:00,34.7,28.2,29.98,West,276,0.0,4.0,77,0.00,,---,0.00,VWS V14.00,2013-03-21 09:25:00,
2013-03-21 02:30:00,34.8,28.3,29.99,NW,308,1.0,5.0,77,0.00,,---,0.00,VWS V14.00,2013-03-21 09:30:00,
2013-03-21 02:35:00,34.7,28.2,29.99,SE,126,1.0,3.0,77,0.00,,---,0.00,VWS V14.00,2013-03-21 09:35:00,
2013-03-21 02:40:00,34.6,28.1,29.99,NE,51,1.0,4.0,77,0.00,,---,0.00,VWS V14.00,2013-03-21 09:40:00,
2013-03-21 02:45:00,34.5,27.7,30.00,SSE,155,1.0,6.0,76,0.00,,---,0.00,VWS V14.00,2013-03-21 09:45:00,
2013-03-21 02:50:00,34.7,28.2,29.99,NW,314,1.0,4.0,77,0.00,,---,0.00,VWS V14.00,2013-03-21 09:50:00,
2013-03-21 02:55:00,34.7,27.6,30.00,WNW,284,4.0,4.0,75,0.00,,---,0.00,VWS V14.00,2013-03-21 09:55:00,
2013-03-21 03:00:00,34.9,28.1,30.00,SE,128,4.0,5.0,76,0.00,,---,0.00,VWS V14.00,2013-03-21 10:00:00,
2013-03-21 03:05:00,35.0,28.5,30.00,SSW,200,1.0,2.0,77,0.00,,---,0.00,VWS V14.00,2013-03-21 10:05:00,
2013-03-21 03:10:00,34.8,28.0,30.00,SW,227,0.0,7.0,76,0.00,,---,0.00,VWS V14.00,2013-03-21 10:10:00,
2013-03-21 03:15:00,34.8,28.3,30.00,NE,54,1.0,2.0,77,0.00,,---,0.00,VWS V14.00,2013-03-21 10:15:00,
2013-03-21 03:20:00,34.8,29.0,30.00,NE,54,0.0,1.0,79,0.00,,---,0.00,VWS V14.00,2013-03-21 10:20:00,
2013-03-21 03:25:00,34.6,28.1,30.01,WNW,300,1.0,8.0,77,0.00,,---,0.00,VWS V14.00,2013-03-21 10:25:00,
2013-03-21 03:30:00,34.6,28.1,30.01,West,271,1.0,7.0,77,0.00,,---,0.00,VWS V14.00,2013-03-21 10:30:00,
2013-03-21 03:35:00,34.7,27.6,30.01,East,92,0.0,5.0,75,0.00,,---,0.00,VWS V14.00,2013-03-21 10:35:00,
2013-03-21 03:40:00,34.9,28.8,30.01,SSW,198,0.0,2.0,78,0.00,,---,0.00,VWS V14.00,2013-03-21 10:40:00,
2013-03-21 03:45:00,34.8,28.3,30.02,SSW,212,0.0,7.0,77,0.00,,---,0.00,VWS V14.00,2013-03-21 10:45:00,
2013-03-21 03:50:00,34.9,28.1,30.02,West,271,0.0,5.0,76,0.00,,---,0.00,VWS V14.00,2013-03-21 10:50:00,
2013-03-21 03:55:00,35.0,27.2,30.02,West,270,0.0,9.0,73,0.00,,---,0.00,VWS V14.00,2013-03-21 10:55:00,
2013-03-21 04:00:00,35.3,27.2,30.02,North,5,0.0,5.0,72,0.00,,---,0.00,VWS V14.00,2013-03-21 11:00:00,
2013-03-21 04:05:00,35.3,27.2,30.02,WNW,302,0.0,6.0,72,0.00,,---,0.00,VWS V14.00,2013-03-21 11:05:00,
2013-03-21 04:10:00,35.3,27.9,30.02,NNE,21,3.0,3.0,74,0.00,,---,0.00,VWS V14.00,2013-03-21 11:10:00,
2013-03-21 04:15:00,35.2,27.1,30.02,ESE,105,0.0,7.0,72,0.00,,---,0.00,VWS V14.00,2013-03-21 11:15:00,
2013-03-21 04:20:00,35.1,26.3,30.02,North,355,0.0,5.0,70,0.00,,---,0.00,VWS V14.00,2013-03-21 11:20:00,
2013-03-21 04:25:00,35.2,26.1,30.02,ENE,76,0.0,5.0,69,0.00,,---,0.00,VWS V14.00,2013-03-21 11:25:00,
2013-03-21 04:30:00,35.4,27.0,30.03,SW,233,3.0,6.0,71,0.00,,---,0.00,VWS V14.00,2013-03-21 11:30:00,
2013-03-21 04:35:00,35.5,27.4,30.03,ESE,123,0.0,5.0,72,0.00,,---,0.00,VWS V14.00,2013-03-21 11:35:00,
2013-03-21 04:40:00,35.5,28.0,30.03,ENE,77,0.0,2.0,74,0.00,,---,0.00,VWS V14.00,2013-03-21 11:40:00,
2013-03-21 04:45:00,35.1,27.3,30.03,ESE,109,1.0,4.0,73,0.00,,---,0.00,VWS V14.00,2013-03-21 11:45:00,
2013-03-21 04:50:00,34.8,27.4,30.03,South,174,1.0,4.0,74,0.00,,---,0.00,VWS V14.00,2013-03-21 11:50:00,
2013-03-21 04:55:00,34.6,26.9,30.03,NNW,327,0.0,5.0,73,0.00,,---,0.00,VWS V14.00,2013-03-21 11:55:00,
2013-03-21 05:00:00,34.6,27.5,30.03,SSE,153,2.0,2.0,75,0.00,,---,0.00,VWS V14.00,2013-03-21 12:00:00,
2013-03-21 05:05:00,34.4,27.0,30.03,SW,227,0.0,4.0,74,0.00,,---,0.00,VWS V14.00,2013-03-21 12:05:00,
2013-03-21 05:10:00,34.3,27.5,30.03,SW,226,0.0,0.0,76,0.00,,---,0.00,VWS V14.00,2013-03-21 12:10:00,
2013-03-21 05:15:00,34.1,28.0,30.04,SW,227,0.0,0.0,78,0.00,,---,0.00,VWS V14.00,2013-03-21 12:15:00,
2013-03-21 05:20:00,33.9,27.8,30.04,SW,227,1.0,1.0,78,0.00,,---,0.00,VWS V14.00,2013-03-21 12:20:00,
2013-03-21 05:25:00,33.5,27.4,30.03,SE,144,0.0,2.0,78,0.00,,---,0.00,VWS V14.00,2013-03-21 12:25:00,
2013-03-21 05:30:00,33.2,27.1,30.04,SE,144,0.0,0.0,78,0.00,,---,0.00,VWS V14.00,2013-03-21 12:30:00,
2013-03-21 05:35:00,33.0,27.2,30.04,SE,144,0.0,0.0,79,0.00,,---,0.00,VWS V14.00,2013-03-21 12:35:00,
2013-03-21 05:40:00,32.7,26.9,30.05,SE,144,0.0,0.0,79,0.00,,---,0.00,VWS V14.00,2013-03-21 12:40:00,
2013-03-21 05:45:00,32.5,27.0,30.05,SE,144,0.0,0.0,80,0.00,,---,0.00,VWS V14.00,2013-03-21 12:45:00,
2013-03-21 05:50:00,32.1,26.9,30.05,SE,144,0.0,0.0,81,0.00,,---,0.00,VWS V14.00,2013-03-21 12:50:00,
2013-03-21 05:55:00,31.8,26.6,30.05,SE,144,0.0,0.0,81,0.00,,---,0.00,VWS V14.00,2013-03-21 12:55:00,
2013-03-21 06:00:00,31.7,26.5,30.05,SE,144,0.0,0.0,81,0.00,,---,0.00,VWS V14.00,2013-03-21 13:00:00,
2013-03-21 06:05:00,31.5,26.6,30.05,SE,144,0.0,0.0,82,0.00,,---,0.00,VWS V14.00,2013-03-21 13:05:00,
2013-03-21 06:10:00,31.4,26.5,30.05,SE,144,0.0,0.0,82,0.00,,---,0.00,VWS V14.00,2013-03-21 13:10:00,
2013-03-21 06:15:00,31.3,26.8,30.05,SE,144,0.0,0.0,83,0.00,,---,0.00,VWS V14.00,2013-03-21 13:15:00,
2013-03-21 06:20:00,31.2,26.6,30.05,SE,144,0.0,0.0,83,0.00,,---,0.00,VWS V14.00,2013-03-21 13:20:00,
2013-03-21 06:25:00,31.2,26.9,30.06,SE,144,0.0,0.0,84,0.00,,---,0.00,VWS V14.00,2013-03-21 13:25:00,
2013-03-21 06:30:00,31.1,26.5,30.06,SE,144,0.0,0.0,83,0.00,,---,0.00,VWS V14.00,2013-03-21 13:30:00,
2013-03-21 06:35:00,31.1,26.8,30.06,SE,145,0.0,0.0,84,0.00,,---,0.00,VWS V14.00,2013-03-21 13:35:00,
2013-03-21 06:40:00,31.1,26.8,30.06,SE,145,0.0,0.0,84,0.00,,---,0.00,VWS V14.00,2013-03-21 13:40:00,
2013-03-21 06:45:00,31.1,26.8,30.06,SE,144,0.0,0.0,84,0.00,,---,0.00,VWS V14.00,2013-03-21 13:45:00,
2013-03-21 06:50:00,31.0,26.7,30.07,SE,144,0.0,0.0,84,0.00,,---,0.00,VWS V14.00,2013-03-21 13:50:00,
2013-03-21 06:55:00,31.0,26.7,30.07,SE,145,0.0,1.0,84,0.00,,---,0.00,VWS V14.00,2013-03-21 13:55:00,
2013-03-21 07:00:00,30.9,26.9,30.07,SE,144,0.0,0.0,85,0.00,,---,0.00,VWS V14.00,2013-03-21 14:00:00,
2013-03-21 07:05:00,30.9,26.9,30.07,SE,144,0.0,0.0,85,0.00,,---,0.00,VWS V14.00,2013-03-21 14:05:00,
2013-03-21 07:10:00,30.9,26.9,30.07,SE,144,0.0,0.0,85,0.00,,---,0.00,VWS V14.00,2013-03-21 14:10:00,
2013-03-21 07:15:00,30.9,26.9,30.07,SE,144,0.0,0.0,85,0.00,,---,0.00,VWS V14.00,2013-03-21 14:15:00,
2013-03-21 07:20:00,30.8,26.8,30.08,SE,144,0.0,0.0,85,0.00,,---,0.00,VWS V14.00,2013-03-21 14:20:00,
2013-03-21 07:25:00,30.8,26.8,30.08,SE,145,0.0,0.0,85,0.00,,---,0.00,VWS V14.00,2013-03-21 14:25:00,
2013-03-21 07:30:00,30.8,26.8,30.08,SE,144,0.0,0.0,85,0.00,,---,0.00,VWS V14.00,2013-03-21 14:30:00,
2013-03-21 07:35:00,31.0,27.0,30.08,SE,144,0.0,0.0,85,0.00,,---,0.00,VWS V14.00,2013-03-21 14:35:00,
2013-03-21 07:40:00,31.0,27.0,30.07,SE,144,0.0,0.0,85,0.00,,---,0.00,VWS V14.00,2013-03-21 14:40:00,
2013-03-21 07:45:00,30.6,26.6,30.07,SE,144,0.0,1.0,85,0.00,,---,0.00,VWS V14.00,2013-03-21 14:45:00,
2013-03-21 07:50:00,30.5,26.5,30.07,SE,144,0.0,0.0,85,0.00,,---,0.00,VWS V14.00,2013-03-21 14:50:00,
2013-03-21 07:55:00,30.6,26.9,30.07,SE,144,0.0,1.0,86,0.00,,---,0.00,VWS V14.00,2013-03-21 14:55:00,
2013-03-21 08:00:00,30.8,27.4,30.07,SE,144,0.0,0.0,87,0.00,,---,0.00,VWS V14.00,2013-03-21 15:00:00,
2013-03-21 08:05:00,31.0,27.6,30.08,SE,144,0.0,0.0,87,0.00,,---,0.00,VWS V14.00,2013-03-21 15:05:00,
2013-03-21 08:10:00,31.2,27.8,30.08,SE,144,0.0,0.0,87,0.00,,---,0.00,VWS V14.00,2013-03-21 15:10:00,
2013-03-21 08:15:00,31.4,28.0,30.08,SE,144,0.0,0.0,87,0.00,,---,0.00,VWS V14.00,2013-03-21 15:15:00,
2013-03-21 08:20:00,31.5,28.1,30.08,SE,144,0.0,0.0,87,0.00,,---,0.00,VWS V14.00,2013-03-21 15:20:00,
2013-03-21 08:25:00,31.7,28.3,30.08,SE,144,0.0,0.0,87,0.00,,---,0.00,VWS V14.00,2013-03-21 15:25:00,
2013-03-21 08:30:00,31.9,28.5,30.09,SE,145,0.0,0.0,87,0.00,,---,0.00,VWS V14.00,2013-03-21 15:30:00,
2013-03-21 08:35:00,32.1,28.7,30.09,SE,144,0.0,0.0,87,0.00,,---,0.00,VWS V14.00,2013-03-21 15:35:00,
2013-03-21 08:40:00,32.2,28.8,30.09,SE,144,0.0,0.0,87,0.00,,---,0.00,VWS V14.00,2013-03-21 15:40:00,
2013-03-21 08:45:00,32.5,29.1,30.09,SE,144,0.0,0.0,87,0.00,,---,0.00,VWS V14.00,2013-03-21 15:45:00,
2013-03-21 08:50:00,32.5,29.1,30.10,SE,144,0.0,0.0,87,0.00,,---,0.00,VWS V14.00,2013-03-21 15:50:00,
2013-03-21 08:55:00,32.6,29.2,30.09,East,101,2.0,2.0,87,0.00,,---,0.00,VWS V14.00,2013-03-21 15:55:00,
2013-03-21 09:00:00,32.8,29.4,30.10,East,80,0.0,3.0,87,0.00,,---,0.00,VWS V14.00,2013-03-21 16:00:00,
2013-03-21 09:05:00,33.1,29.7,30.10,East,80,0.0,0.0,87,0.00,,---,0.00,VWS V14.00,2013-03-21 16:05:00,
2013-03-21 09:10:00,33.4,30.0,30.10,East,80,0.0,1.0,87,0.00,,---,0.00,VWS V14.00,2013-03-21 16:10:00,
2013-03-21 09:15:00,33.8,30.4,30.10,East,80,0.0,1.0,87,0.00,,---,0.00,VWS V14.00,2013-03-21 16:15:00,
2013-03-21 09:20:00,34.2,30.5,30.10,NE,42,0.0,1.0,86,0.00,,---,0.00,VWS V14.00,2013-03-21 16:20:00,
2013-03-21 09:25:00,34.4,30.6,30.10,NE,42,0.0,0.0,86,0.00,,---,0.00,VWS V14.00,2013-03-21 16:25:00,
2013-03-21 09:29:00,34.7,30.4,30.11,NE,42,0.0,0.0,84,0.00,,---,0.00,VWS V14.00,2013-03-21 16:29:00,
2013-03-21 09:34:00,35.4,30.2,30.11,NE,49,1.0,3.0,81,0.00,,---,0.00,VWS V14.00,2013-03-21 16:34:00,
2013-03-21 09:39:00,35.9,29.7,30.11,NE,49,0.0,1.0,78,0.00,,---,0.00,VWS V14.00,2013-03-21 16:39:00,
2013-03-21 09:44:00,36.4,29.9,30.11,NE,47,0.0,3.0,77,0.00,,---,0.00,VWS V14.00,2013-03-21 16:44:00,
2013-03-21 09:49:00,37.0,29.5,30.11,NNE,16,0.0,4.0,74,0.00,,---,0.00,VWS V14.00,2013-03-21 16:49:00,
2013-03-21 09:54:00,37.5,29.3,30.12,NE,49,0.0,3.0,72,0.00,,---,0.00,VWS V14.00,2013-03-21 16:54:00,
2013-03-21 09:59:00,37.9,29.4,30.12,NE,49,1.0,1.0,71,0.00,,---,0.00,VWS V14.00,2013-03-21 16:59:00,
2013-03-21 10:04:00,38.0,28.4,30.12,NE,49,0.0,2.0,68,0.00,,---,0.00,VWS V14.00,2013-03-21 17:04:00,
2013-03-21 10:09:00,38.2,28.9,30.12,NE,49,0.0,1.0,69,0.00,,---,0.00,VWS V14.00,2013-03-21 17:09:00,
2013-03-21 10:14:00,38.3,29.0,30.12,NE,49,0.0,1.0,69,0.00,,---,0.00,VWS V14.00,2013-03-21 17:14:00,
2013-03-21 10:19:00,38.4,29.1,30.12,NE,49,0.0,1.0,69,0.00,,---,0.00,VWS V14.00,2013-03-21 17:19:00,
2013-03-21 10:24:00,38.7,29.1,30.12,NE,51,0.0,1.0,68,0.00,,---,0.00,VWS V14.00,2013-03-21 17:24:00,
2013-03-21 10:29:00,39.7,29.3,30.12,NE,51,0.0,1.0,66,0.00,,---,0.00,VWS V14.00,2013-03-21 17:29:00,
2013-03-21 10:34:00,40.3,28.7,30.12,ENE,63,4.0,5.0,63,0.00,,---,0.00,VWS V14.00,2013-03-21 17:34:00,
2013-03-21 10:39:00,40.3,27.1,30.12,NNW,339,0.0,3.0,59,0.00,,---,0.00,VWS V14.00,2013-03-21 17:39:00,
2013-03-21 10:44:00,40.2,27.8,30.12,NNW,339,0.0,0.0,61,0.00,,---,0.00,VWS V14.00,2013-03-21 17:44:00,
2013-03-21 10:49:00,40.3,28.7,30.12,NNW,339,0.0,1.0,63,0.00,,---,0.00,VWS V14.00,2013-03-21 17:49:00,
2013-03-21 10:54:00,40.7,29.1,30.12,NE,44,0.0,2.0,63,0.00,,---,0.00,VWS V14.00,2013-03-21 17:54:00,
2013-03-21 10:59:00,41.8,29.4,30.12,South,184,1.0,3.0,61,0.00,,---,0.00,VWS V14.00,2013-03-21 17:59:00,
2013-03-21 11:04:00,42.5,30.8,30.12,ESE,109,2.0,2.0,63,0.00,,---,0.00,VWS V14.00,2013-03-21 18:04:00,
2013-03-21 11:09:00,42.4,29.1,30.13,WNW,301,0.0,5.0,59,0.00,,---,0.00,VWS V14.00,2013-03-21 18:09:00,
2013-03-21 11:14:00,42.7,29.4,30.13,NW,319,0.0,4.0,59,0.00,,---,0.00,VWS V14.00,2013-03-21 18:14:00,
2013-03-21 11:19:00,42.9,30.0,30.13,NNE,24,2.0,3.0,60,0.00,,---,0.00,VWS V14.00,2013-03-21 18:19:00,
2013-03-21 11:24:00,42.3,29.0,30.13,North,360,0.0,3.0,59,0.00,,---,0.00,VWS V14.00,2013-03-21 18:24:00,
2013-03-21 11:29:00,42.0,29.9,30.13,North,360,0.0,1.0,62,0.00,,---,0.00,VWS V14.00,2013-03-21 18:29:00,
2013-03-21 11:34:00,42.5,30.0,30.13,NNE,22,2.0,2.0,61,0.00,,---,0.00,VWS V14.00,2013-03-21 18:34:00,
2013-03-21 11:39:00,42.9,30.0,30.13,WNW,295,2.0,4.0,60,0.00,,---,0.00,VWS V14.00,2013-03-21 18:39:00,
2013-03-21 11:44:00,42.2,28.5,30.13,NW,318,1.0,5.0,58,0.00,,---,0.00,VWS V14.00,2013-03-21 18:44:00,
2013-03-21 11:49:00,41.6,29.6,30.13,ENE,68,0.0,4.0,62,0.00,,---,0.00,VWS V14.00,2013-03-21 18:49:00,
2013-03-21 11:54:00,41.5,31.0,30.13,ENE,69,0.0,1.0,66,0.00,,---,0.00,VWS V14.00,2013-03-21 18:54:00,
2013-03-21 11:59:00,41.1,29.5,30.14,NW,306,2.0,4.0,63,0.00,,---,0.00,VWS V14.00,2013-03-21 18:59:00,
2013-03-21 12:04:00,40.7,29.5,30.14,WNW,291,0.0,2.0,64,0.00,,---,0.00,VWS V14.00,2013-03-21 19:04:00,
2013-03-21 12:09:00,40.5,29.3,30.14,WNW,292,1.0,2.0,64,0.00,,---,0.00,VWS V14.00,2013-03-21 19:09:00,
2013-03-21 12:14:00,40.3,31.0,30.13,WNW,292,0.0,1.0,69,0.00,,---,0.00,VWS V14.00,2013-03-21 19:14:00,
2013-03-21 12:19:00,39.9,31.3,30.14,WNW,291,0.0,1.0,71,0.00,,---,0.00,VWS V14.00,2013-03-21 19:19:00,
2013-03-21 12:24:00,39.8,30.5,30.13,WNW,292,0.0,1.0,69,0.00,,---,0.01,VWS V14.00,2013-03-21 19:24:00,
2013-03-21 12:29:00,40.0,30.3,30.13,NNE,13,1.0,4.0,68,0.00,,---,0.01,VWS V14.00,2013-03-21 19:29:00,
2013-03-21 12:34:00,40.5,30.4,30.13,NNE,18,0.0,3.0,67,0.00,,---,0.01,VWS V14.00,2013-03-21 19:34:00,
2013-03-21 12:39:00,41.0,30.9,30.13,NNE,27,1.0,1.0,67,0.00,,---,0.01,VWS V14.00,2013-03-21 19:39:00,
2013-03-21 12:44:00,41.2,30.3,30.13,South,189,0.0,4.0,65,0.00,,---,0.01,VWS V14.00,2013-03-21 19:44:00,
2013-03-21 12:49:00,41.4,30.5,30.13,South,189,0.0,1.0,65,0.00,,---,0.01,VWS V14.00,2013-03-21 19:49:00,
2013-03-21 12:54:00,41.6,30.7,30.13,South,189,0.0,0.0,65,0.00,,---,0.01,VWS V14.00,2013-03-21 19:54:00,
2013-03-21 12:59:00,41.9,30.6,30.13,SE,128,0.0,2.0,64,0.00,,---,0.01,VWS V14.00,2013-03-21 19:59:00,
2013-03-21 13:04:00,41.9,28.6,30.13,WSW,254,0.0,4.0,59,0.00,,---,0.01,VWS V14.00,2013-03-21 20:04:00,
2013-03-21 13:09:00,42.1,29.6,30.13,NW,311,4.0,6.0,61,0.00,,---,0.01,VWS V14.00,2013-03-21 20:09:00,
2013-03-21 13:14:00,41.8,29.4,30.13,WNW,290,0.0,5.0,61,0.00,,---,0.01,VWS V14.00,2013-03-21 20:14:00,
2013-03-21 13:19:00,41.8,29.8,30.13,East,92,1.0,4.0,62,0.00,,---,0.01,VWS V14.00,2013-03-21 20:19:00,
2013-03-21 13:24:00,41.6,30.0,30.13,ENE,72,2.0,4.0,63,0.00,,---,0.01,VWS V14.00,2013-03-21 20:24:00,
2013-03-21 13:29:00,41.7,31.2,30.13,East,81,0.0,3.0,66,0.00,,---,0.01,VWS V14.00,2013-03-21 20:29:00,
2013-03-21 13:34:00,41.3,30.8,30.13,East,82,0.0,1.0,66,0.00,,---,0.01,VWS V14.00,2013-03-21 20:34:00,
2013-03-21 13:39:00,41.1,29.9,30.13,WSW,254,0.0,6.0,64,0.00,,---,0.01,VWS V14.00,2013-03-21 20:39:00,
2013-03-21 13:44:00,41.3,30.8,30.13,WSW,254,0.0,1.0,66,0.00,,---,0.01,VWS V14.00,2013-03-21 20:44:00,
2013-03-21 13:49:00,40.8,30.3,30.13,SW,235,0.0,5.0,66,0.00,,---,0.01,VWS V14.00,2013-03-21 20:49:00,
2013-03-21 13:54:00,41.0,32.0,30.13,SW,223,1.0,2.0,70,0.00,,---,0.01,VWS V14.00,2013-03-21 20:54:00,
2013-03-21 13:59:00,41.0,31.3,30.12,ENE,74,0.0,2.0,68,0.00,,---,0.01,VWS V14.00,2013-03-21 20:59:00,
2013-03-21 14:04:00,41.1,32.1,30.12,West,277,0.0,5.0,70,0.00,,---,0.01,VWS V14.00,2013-03-21 21:04:00,
2013-03-21 14:09:00,41.4,32.4,30.12,ENE,63,0.0,3.0,70,0.00,,---,0.01,VWS V14.00,2013-03-21 21:09:00,
2013-03-21 14:14:00,41.4,30.9,30.12,SE,126,0.0,4.0,66,0.00,,---,0.01,VWS V14.00,2013-03-21 21:14:00,
2013-03-21 14:19:00,42.3,32.5,30.11,NNE,32,1.0,2.0,68,0.00,,---,0.01,VWS V14.00,2013-03-21 21:19:00,
2013-03-21 14:24:00,41.8,31.7,30.11,NNW,340,1.0,2.0,67,0.00,,---,0.01,VWS V14.00,2013-03-21 21:24:00,
2013-03-21 14:29:00,42.0,32.9,30.11,NNW,340,0.0,1.0,70,0.00,,---,0.01,VWS V14.00,2013-03-21 21:29:00,
2013-03-21 14:34:00,42.7,32.9,30.11,NE,46,1.0,4.0,68,0.00,,---,0.01,VWS V14.00,2013-03-21 21:34:00,
2013-03-21 14:39:00,42.1,31.2,30.11,NW,308,1.0,5.0,65,0.00,,---,0.01,VWS V14.00,2013-03-21 21:39:00,
2013-03-21 14:44:00,42.9,32.7,30.10,WNW,290,1.0,4.0,67,0.00,,---,0.01,VWS V14.00,2013-03-21 21:44:00,
2013-03-21 14:49:00,42.1,31.2,30.11,NE,44,0.0,2.0,65,0.00,,---,0.01,VWS V14.00,2013-03-21 21:49:00,
2013-03-21 14:54:00,42.6,32.4,30.11,NE,50,1.0,2.0,67,0.00,,---,0.01,VWS V14.00,2013-03-21 21:54:00,
2013-03-21 14:59:00,43.6,33.4,30.10,NE,43,3.0,3.0,67,0.00,,---,0.01,VWS V14.00,2013-03-21 21:59:00,
2013-03-21 15:04:00,43.4,32.4,30.10,NNW,333,1.0,4.0,65,0.00,,---,0.01,VWS V14.00,2013-03-21 22:04:00,
2013-03-21 15:09:00,43.3,31.2,30.10,ENE,61,5.0,6.0,62,0.00,,---,0.01,VWS V14.00,2013-03-21 22:09:00,
2013-03-21 15:14:00,43.3,32.3,30.10,ESE,111,1.0,6.0,65,0.00,,---,0.01,VWS V14.00,2013-03-21 22:14:00,
2013-03-21 15:19:00,42.2,30.9,30.10,ENE,74,0.0,2.0,64,0.00,,---,0.01,VWS V14.00,2013-03-21 22:19:00,
2013-03-21 15:24:00,41.9,31.8,30.11,ENE,74,0.0,1.0,67,0.00,,---,0.01,VWS V14.00,2013-03-21 22:24:00,
2013-03-21 15:29:00,41.7,31.9,30.11,ENE,74,0.0,0.0,68,0.00,,---,0.01,VWS V14.00,2013-03-21 22:29:00,
2013-03-21 15:34:00,41.1,33.5,30.11,NW,323,1.0,2.0,74,0.00,,---,0.01,VWS V14.00,2013-03-21 22:34:00,
2013-03-21 15:39:00,40.7,34.1,30.12,NW,323,1.0,4.0,77,0.00,,---,0.01,VWS V14.00,2013-03-21 22:39:00,
2013-03-21 15:44:00,40.4,34.4,30.12,NW,309,0.0,2.0,79,0.00,,---,0.01,VWS V14.00,2013-03-21 22:44:00,
2013-03-21 15:49:00,40.5,33.5,30.12,WNW,290,1.0,4.0,76,0.00,,---,0.01,VWS V14.00,2013-03-21 22:49:00,
2013-03-21 15:54:00,41.3,34.7,30.12,ENE,66,1.0,3.0,77,0.00,,---,0.01,VWS V14.00,2013-03-21 22:54:00,
2013-03-21 15:59:00,41.0,34.0,30.11,NW,313,2.0,4.0,76,0.00,,---,0.01,VWS V14.00,2013-03-21 22:59:00,
2013-03-21 16:04:00,40.6,33.3,30.11,NW,313,0.0,2.0,75,0.00,,---,0.01,VWS V14.00,2013-03-21 23:04:00,
2013-03-21 16:09:00,40.1,33.2,30.11,NW,322,0.0,2.0,76,0.00,,---,0.01,VWS V14.00,2013-03-21 23:09:00,
2013-03-21 16:14:00,40.0,33.4,30.11,NW,322,0.0,1.0,77,0.00,,---,0.01,VWS V14.00,2013-03-21 23:14:00,
2013-03-21 16:19:00,39.7,33.1,30.11,WSW,242,1.0,2.0,77,0.00,,---,0.01,VWS V14.00,2013-03-21 23:19:00,
2013-03-21 16:24:00,39.1,32.2,30.11,SW,234,0.0,2.0,76,0.00,,---,0.01,VWS V14.00,2013-03-21 23:24:00,
2013-03-21 16:29:00,39.0,32.4,30.11,SW,234,0.0,1.0,77,0.00,,---,0.01,VWS V14.00,2013-03-21 23:29:00,
2013-03-21 16:34:00,39.1,32.5,30.11,SSE,166,0.0,1.0,77,0.00,,---,0.01,VWS V14.00,2013-03-21 23:34:00,
2013-03-21 16:39:00,39.1,32.5,30.12,SSE,167,0.0,0.0,77,0.00,,---,0.01,VWS V14.00,2013-03-21 23:39:00,
2013-03-21 16:44:00,38.9,33.0,30.12,SSE,166,0.0,0.0,79,0.00,,---,0.02,VWS V14.00,2013-03-21 23:44:00,
2013-03-21 16:49:00,38.6,33.3,30.12,SSE,167,0.0,0.0,81,0.00,,---,0.02,VWS V14.00,2013-03-21 23:49:00,
2013-03-21 16:54:00,38.2,32.9,30.12,SSE,166,0.0,0.0,81,0.00,,---,0.02,VWS V14.00,2013-03-21 23:54:00,
2013-03-21 16:59:00,37.7,32.7,30.12,SSE,167,0.0,0.0,82,0.00,,---,0.02,VWS V14.00,2013-03-21 23:59:00,
2013-03-21 17:04:00,37.3,32.6,30.12,SSE,167,0.0,0.0,83,0.00,,---,0.02,VWS V14.00,2013-03-22 00:04:00,
2013-03-21 17:09:00,37.2,32.8,30.12,SSE,167,0.0,0.0,84,0.00,,---,0.02,VWS V14.00,2013-03-22 00:09:00,
2013-03-21 17:14:00,37.1,33.0,30.12,SSE,167,0.0,0.0,85,0.00,,---,0.02,VWS V14.00,2013-03-22 00:14:00,
2013-03-21 17:19:00,37.0,33.2,30.12,SSE,166,0.0,0.0,86,0.00,,---,0.02,VWS V14.00,2013-03-22 00:19:00,
2013-03-21 17:24:00,37.0,33.5,30.12,SSE,167,0.0,0.0,87,0.05,,---,0.03,VWS V14.00,2013-03-22 00:24:00,
2013-03-21 17:29:00,37.0,33.5,30.12,SSE,167,0.0,0.0,87,0.05,,---,0.03,VWS V14.00,2013-03-22 00:29:00,
2013-03-21 17:34:00,37.0,33.8,30.13,SSE,167,0.0,0.0,88,0.03,,---,0.03,VWS V14.00,2013-03-22 00:34:00,
2013-03-21 17:39:00,36.9,33.7,30.13,SSE,167,0.0,0.0,88,0.03,,---,0.04,VWS V14.00,2013-03-22 00:39:00,
2013-03-21 17:44:00,36.9,33.7,30.13,SSE,166,0.0,1.0,88,0.03,,---,0.04,VWS V14.00,2013-03-22 00:44:00,
2013-03-21 17:49:00,36.7,33.5,30.13,SSE,167,0.0,0.0,88,0.03,,---,0.05,VWS V14.00,2013-03-22 00:49:00,
2013-03-21 17:54:00,36.4,33.5,30.14,SSE,167,0.0,0.0,89,0.03,,---,0.05,VWS V14.00,2013-03-22 00:54:00,
2013-03-21 17:59:00,36.2,33.3,30.14,SSE,167,0.0,1.0,89,0.03,,---,0.05,VWS V14.00,2013-03-22 00:59:00,
2013-03-21 18:04:00,36.2,33.3,30.14,SSE,167,0.0,2.0,89,0.17,,---,0.06,VWS V14.00,2013-03-22 01:04:00,
2013-03-21 18:09:00,36.1,33.5,30.15,SSE,166,0.0,0.0,90,0.13,,---,0.07,VWS V14.00,2013-03-22 01:09:00,
2013-03-21 18:14:00,35.8,32.9,30.15,SSE,167,1.0,1.0,89,0.07,,---,0.08,VWS V14.00,2013-03-22 01:14:00,
2013-03-21 18:19:00,35.6,33.0,30.15,SSE,167,0.0,1.0,90,0.07,,---,0.08,VWS V14.00,2013-03-22 01:19:00,
2013-03-21 18:24:00,35.4,32.8,30.15,SE,127,0.0,2.0,90,0.05,,---,0.09,VWS V14.00,2013-03-22 01:24:00,
2013-03-21 18:29:00,35.2,32.6,30.15,SE,127,1.0,1.0,90,0.05,,---,0.09,VWS V14.00,2013-03-22 01:29:00,
2013-03-21 18:34:00,35.1,32.5,30.15,South,186,0.0,2.0,90,0.05,,---,0.09,VWS V14.00,2013-03-22 01:34:00,
2013-03-21 18:39:00,34.9,32.3,30.15,South,184,0.0,2.0,90,0.05,,---,0.09,VWS V14.00,2013-03-22 01:39:00,
2013-03-21 18:44:00,34.5,31.9,30.14,SE,136,0.0,2.0,90,0.04,,---,0.09,VWS V14.00,2013-03-22 01:44:00,
2013-03-21 18:49:00,34.1,31.5,30.14,SE,136,0.0,1.0,90,0.03,,---,0.09,VWS V14.00,2013-03-22 01:49:00,
2013-03-21 18:54:00,34.1,31.5,30.14,SE,136,0.0,0.0,90,0.00,,---,0.09,VWS V14.00,2013-03-22 01:54:00,
2013-03-21 18:59:00,34.0,31.6,30.14,SE,136,0.0,1.0,91,0.00,,---,0.10,VWS V14.00,2013-03-22 01:59:00,
2013-03-21 19:04:00,34.0,31.6,30.14,SE,146,1.0,3.0,91,0.06,,---,0.11,VWS V14.00,2013-03-22 02:04:00,
2013-03-21 19:09:00,34.2,31.9,30.14,NW,314,0.0,7.0,91,0.06,,---,0.11,VWS V14.00,2013-03-22 02:09:00,
2013-03-21 19:14:00,34.3,32.0,30.15,NNW,332,2.0,2.0,91,0.05,,---,0.12,VWS V14.00,2013-03-22 02:14:00,
2013-03-21 19:19:00,34.4,32.0,30.16,NNW,330,1.0,2.0,91,0.05,,---,0.12,VWS V14.00,2013-03-22 02:19:00,
2013-03-21 19:24:00,34.4,32.0,30.16,WNW,296,1.0,5.0,91,0.06,,---,0.13,VWS V14.00,2013-03-22 02:24:00,
2013-03-21 19:29:00,34.4,32.0,30.16,WNW,300,0.0,7.0,91,0.06,,---,0.13,VWS V14.00,2013-03-22 02:29:00,
2013-03-21 19:34:00,34.3,32.0,30.17,WNW,298,1.0,4.0,91,0.06,,---,0.13,VWS V14.00,2013-03-22 02:34:00,
2013-03-21 19:39:00,34.2,31.9,30.17,West,261,3.0,9.0,91,0.10,,---,0.14,VWS V14.00,2013-03-22 02:39:00,
2013-03-21 19:44:00,34.1,32.0,30.17,SW,224,3.0,9.0,92,0.05,,---,0.14,VWS V14.00,2013-03-22 02:44:00,
2013-03-21 19:49:00,34.2,32.1,30.17,West,275,0.0,4.0,92,0.03,,---,0.14,VWS V14.00,2013-03-22 02:49:00,
2013-03-21 19:54:00,34.2,32.1,30.17,North,10,1.0,5.0,92,0.03,,---,0.15,VWS V14.00,2013-03-22 02:54:00,
2013-03-21 19:59:00,34.2,32.1,30.18,NW,313,0.0,4.0,92,0.03,,---,0.15,VWS V14.00,2013-03-22 02:59:00,
2013-03-21 20:04:00,34.2,32.1,30.17,WNW,292,4.0,9.0,92,0.03,,---,0.15,VWS V14.00,2013-03-22 03:04:00,
2013-03-21 20:09:00,34.1,32.0,30.18,West,261,0.0,7.0,92,0.00,,---,0.15,VWS V14.00,2013-03-22 03:09:00,
2013-03-21 20:14:00,34.1,32.0,30.17,WNW,297,0.0,4.0,92,0.00,,---,0.15,VWS V14.00,2013-03-22 03:14:00,
2013-03-21 20:19:00,34.1,32.0,30.18,NW,323,6.0,8.0,92,0.00,,---,0.15,VWS V14.00,2013-03-22 03:19:00,
2013-03-21 20:24:00,34.1,32.0,30.18,WSW,244,1.0,6.0,92,0.00,,---,0.15,VWS V14.00,2013-03-22 03:24:00,
2013-03-21 20:29:00,34.1,32.0,30.18,West,281,2.0,6.0,92,0.00,,---,0.15,VWS V14.00,2013-03-22 03:29:00,
2013-03-21 20:34:00,34.0,31.9,30.19,West,269,3.0,8.0,92,0.00,,---,0.15,VWS V14.00,2013-03-22 03:34:00,
2013-03-21 20:39:00,34.0,31.9,30.19,West,275,0.0,7.0,92,0.00,,---,0.15,VWS V14.00,2013-03-22 03:39:00,
2013-03-21 20:44:00,34.0,31.9,30.19,WNW,290,0.0,4.0,92,0.00,,---,0.15,VWS V14.00,2013-03-22 03:44:00,
2013-03-21 20:49:00,33.9,31.8,30.19,WNW,288,4.0,6.0,92,0.00,,---,0.15,VWS V14.00,2013-03-22 03:49:00,
2013-03-21 20:54:00,33.7,31.6,30.19,SSW,196,0.0,4.0,92,0.00,,---,0.15,VWS V14.00,2013-03-22 03:54:00,
2013-03-21 20:59:00,33.6,31.5,30.19,SSE,150,0.0,2.0,92,0.00,,---,0.15,VWS V14.00,2013-03-22 03:59:00,
2013-03-21 21:00:00,33.6,31.5,30.19,SSE,150,0.0,2.0,92,0.00,,---,0.15,VWS V14.00,2013-03-22 04:00:00,
2013-03-21 21:05:00,33.7,31.6,30.19,SSE,150,0.0,1.0,92,0.00,,---,0.15,VWS V14.00,2013-03-22 04:05:00,
2013-03-21 21:10:00,33.7,31.6,30.19,SSE,150,1.0,1.0,92,0.00,,---,0.15,VWS V14.00,2013-03-22 04:10:00,
2013-03-21 21:15:00,33.5,31.4,30.18,SSE,151,0.0,2.0,92,0.00,,---,0.15,VWS V14.00,2013-03-22 04:15:00,
2013-03-21 21:20:00,33.4,31.3,30.18,WNW,298,0.0,5.0,92,0.00,,---,0.15,VWS V14.00,2013-03-22 04:20:00,
2013-03-21 21:25:00,33.4,31.3,30.18,WNW,298,0.0,2.0,92,0.00,,---,0.15,VWS V14.00,2013-03-22 04:25:00,
2013-03-21 21:30:00,33.3,31.2,30.19,NW,307,0.0,6.0,92,0.00,,---,0.15,VWS V14.00,2013-03-22 04:30:00,
2013-03-21 21:35:00,33.3,31.2,30.18,SSE,160,0.0,5.0,92,0.00,,---,0.15,VWS V14.00,2013-03-22 04:35:00,
2013-03-21 21:40:00,33.3,31.2,30.18,WSW,255,1.0,5.0,92,0.00,,---,0.15,VWS V14.00,2013-03-22 04:40:00,
2013-03-21 21:45:00,33.1,31.0,30.19,NW,315,2.0,5.0,92,0.00,,---,0.15,VWS V14.00,2013-03-22 04:45:00,
2013-03-21 21:50:00,32.9,30.8,30.19,NW,326,1.0,6.0,92,0.00,,---,0.15,VWS V14.00,2013-03-22 04:50:00,
2013-03-21 21:55:00,32.9,30.8,30.19,SW,217,1.0,6.0,92,0.00,,---,0.15,VWS V14.00,2013-03-22 04:55:00,
2013-03-21 22:00:00,32.8,30.7,30.19,NNW,348,0.0,5.0,92,0.00,,---,0.15,VWS V14.00,2013-03-22 05:00:00,
2013-03-21 22:05:00,32.8,30.7,30.19,WSW,250,1.0,2.0,92,0.00,,---,0.15,VWS V14.00,2013-03-22 05:05:00,
2013-03-21 22:10:00,32.7,30.6,30.20,North,5,1.0,5.0,92,0.00,,---,0.15,VWS V14.00,2013-03-22 05:10:00,
2013-03-21 22:15:00,32.6,30.5,30.20,NW,307,0.0,2.0,92,0.00,,---,0.15,VWS V14.00,2013-03-22 05:15:00,
2013-03-21 22:20:00,32.7,30.6,30.20,NW,307,0.0,1.0,92,0.00,,---,0.15,VWS V14.00,2013-03-22 05:20:00,
2013-03-21 22:25:00,32.6,30.5,30.20,NW,307,0.0,1.0,92,0.00,,---,0.15,VWS V14.00,2013-03-22 05:25:00,
2013-03-21 22:30:00,32.5,30.4,30.20,NNW,338,1.0,2.0,92,0.00,,---,0.15,VWS V14.00,2013-03-22 05:30:00,
2013-03-21 22:35:00,32.4,30.3,30.21,West,267,0.0,4.0,92,0.00,,---,0.15,VWS V14.00,2013-03-22 05:35:00,
2013-03-21 22:40:00,32.4,30.3,30.20,West,267,1.0,2.0,92,0.00,,---,0.15,VWS V14.00,2013-03-22 05:40:00,
2013-03-21 22:45:00,32.2,30.1,30.20,WNW,282,1.0,2.0,92,0.00,,---,0.15,VWS V14.00,2013-03-22 05:45:00,
2013-03-21 22:50:00,32.0,29.9,30.21,WNW,284,0.0,6.0,92,0.00,,---,0.15,VWS V14.00,2013-03-22 05:50:00,
2013-03-21 22:55:00,31.9,29.8,30.21,WNW,284,0.0,2.0,92,0.00,,---,0.15,VWS V14.00,2013-03-22 05:55:00,
2013-03-21 23:00:00,31.8,29.8,30.21,WNW,300,1.0,5.0,92,0.00,,---,0.15,VWS V14.00,2013-03-22 06:00:00,
2013-03-21 23:05:00,31.9,30.1,30.21,WNW,285,1.0,6.0,93,0.00,,---,0.15,VWS V14.00,2013-03-22 06:05:00,
2013-03-21 23:10:00,31.8,29.8,30.21,NNW,342,2.0,6.0,92,0.00,,---,0.15,VWS V14.00,2013-03-22 06:10:00,
2013-03-21 23:15:00,31.9,30.1,30.21,WNW,300,2.0,9.0,93,0.00,,---,0.15,VWS V14.00,2013-03-22 06:15:00,
2013-03-21 23:20:00,31.9,30.1,30.20,NW,315,1.0,4.0,93,0.00,,---,0.15,VWS V14.00,2013-03-22 06:20:00,
2013-03-21 23:25:00,32.0,30.2,30.20,WNW,283,2.0,7.0,93,0.00,,---,0.15,VWS V14.00,2013-03-22 06:25:00,
2013-03-21 23:30:00,32.0,30.2,30.20,SSW,206,0.0,6.0,93,0.00,,---,0.15,VWS V14.00,2013-03-22 06:30:00,
2013-03-21 23:35:00,32.1,30.3,30.20,West,276,2.0,7.0,93,0.00,,---,0.15,VWS V14.00,2013-03-22 06:35:00,
2013-03-21 23:40:00,32.2,30.4,30.20,West,263,0.0,8.0,93,0.00,,---,0.15,VWS V14.00,2013-03-22 06:40:00,
2013-03-21 23:45:00,32.3,30.2,30.20,West,273,0.0,2.0,92,0.00,,---,0.15,VWS V14.00,2013-03-22 06:45:00,
2013-03-21 23:50:00,32.3,30.2,30.20,SW,236,1.0,8.0,92,0.00,,---,0.15,VWS V14.00,2013-03-22 06:50:00,
2013-03-21 23:55:00,32.4,30.6,30.20,WSW,243,0.0,3.0,93,0.00,,---,0.15,VWS V14.00,2013-03-22 06:55:00,